Time;durP1;ratioP1;P1;durP2;ratioP2;P2;SDS_P1;SDS_P2;PMS_P1;PMS_P2;Temp;Humidity;BMP_temperature;BMP_pressure;BME280_temperature;BME280_humidity;BME280_pressure;Samples;Min_cycle;Max_cycle;Signal;HPM_P1;HPM_P2
2023/10/04 00:01:13;;;;;;;;;;;;;;;19.43;59.53;100547.47;10331484;28;1949;-71
2023/10/04 00:06:12;;;;;;;;;;;;;;;19.42;59.59;100545.75;10331150;28;977;-71
2023/10/04 00:11:08;;;;;;;;;;;;;;;19.42;59.55;100557.19;10331265;28;774;-70
2023/10/04 00:16:04;;;;;;;;;;;;;;;19.40;59.55;100566.94;10331185;28;889;-71
2023/10/04 00:21:01;;;;;;;;;;;;;;;19.40;59.64;100564.31;10330621;28;1894;-70
2023/10/04 00:25:57;;;;;;;;;;;;;;;19.40;59.46;100576.66;10330672;28;935;-71
2023/10/04 00:30:53;;;;;;;;;;;;;;;19.39;59.69;100578.47;10330757;28;1313;-70
2023/10/04 00:35:51;;;;;;;;;;;;;;;19.38;59.72;100575.84;10331438;28;806;-71
2023/10/04 00:40:52;;;;;;;;;;;;;;;19.36;59.59;100581.22;10330525;28;1980;-71
2023/10/04 00:45:48;;;;;;;;;;;;;;;19.36;59.62;100583.88;10330352;28;837;-71
2023/10/04 00:50:44;;;;;;;;;;;;;;;19.36;59.60;100585.63;10328782;28;838;-71
2023/10/04 00:55:41;;;;;;;;;;;;;;;19.34;59.71;100593.63;10329808;28;791;-71
2023/10/04 01:00:37;;;;;;;;;;;;;;;19.33;59.70;100601.59;10329093;28;1898;-71
2023/10/04 01:05:38;;;;;;;;;;;;;;;19.33;59.75;100598.94;10329720;28;869;-71
2023/10/04 01:10:38;;;;;;;;;;;;;;;19.31;59.76;100593.75;10328806;28;805;-71
2023/10/04 01:15:36;;;;;;;;;;;;;;;19.31;59.62;100591.09;10329445;28;1605;-70
2023/10/04 01:20:33;;;;;;;;;;;;;;;19.31;59.72;100595.50;10328286;28;1902;-71
2023/10/04 01:25:29;;;;;;;;;;;;;;;19.30;59.64;100597.28;10327506;28;1209;-71
2023/10/04 01:30:25;;;;;;;;;;;;;;;19.29;59.79;100597.34;10328273;28;1484;-71
2023/10/04 01:35:24;;;;;;;;;;;;;;;19.27;59.78;100594.75;10328409;28;901;-71
2023/10/04 01:40:22;;;;;;;;;;;;;;;19.27;59.80;100600.03;10328025;28;1977;-71
2023/10/04 01:45:21;;;;;;;;;;;;;;;19.25;59.88;100593.94;10327896;28;806;-71
2023/10/04 01:50:16;;;;;;;;;;;;;;;19.23;59.65;100587.84;10328420;28;817;-71
2023/10/04 01:55:13;;;;;;;;;;;;;;;19.23;59.89;100601.06;10326886;28;923;-71
2023/10/04 02:00:10;;;;;;;;;;;;;;;19.22;59.65;100604.63;10326834;28;1894;-71
2023/10/04 02:05:05;;;;;;;;;;;;;;;19.21;59.72;100600.28;10327191;28;778;-70
2023/10/04 02:10:01;;;;;;;;;;;;;;;19.19;59.80;100596.81;10326454;28;925;-71
2023/10/04 02:14:58;;;;;;;;;;;;;;;19.17;59.85;100588.06;10326872;28;930;-70
2023/10/04 02:19:54;;;;;;;;;;;;;;;19.17;59.78;100596.84;10326630;28;1966;-71
2023/10/04 02:24:50;;;;;;;;;;;;;;;19.16;59.68;100602.22;10326184;28;833;-71
2023/10/04 02:29:47;;;;;;;;;;;;;;;19.15;59.86;100598.72;10326489;28;797;-70
2023/10/04 02:34:43;;;;;;;;;;;;;;;19.15;59.83;100603.09;10327158;28;1325;-70
2023/10/04 02:39:39;;;;;;;;;;;;;;;19.13;59.68;100604.97;10325768;28;1984;-71
2023/10/04 02:44:34;;;;;;;;;;;;;;;19.11;59.64;100609.44;10326190;28;880;-71
2023/10/04 02:49:31;;;;;;;;;;;;;;;19.11;59.71;100609.44;10324883;28;963;-71
2023/10/04 02:54:28;;;;;;;;;;;;;;;19.09;59.68;100609.47;10325243;28;802;-71
2023/10/04 02:59:25;;;;;;;;;;;;;;;19.09;59.78;100600.69;10325197;28;1894;-71
2023/10/04 03:04:21;;;;;;;;;;;;;;;19.10;59.70;100597.13;10325771;28;849;-71
2023/10/04 03:09:16;;;;;;;;;;;;;;;19.07;59.61;100607.81;10325007;28;1103;-71
2023/10/04 03:14:12;;;;;;;;;;;;;;;19.05;59.72;100611.38;10329389;28;878;-71
2023/10/04 03:19:10;;;;;;;;;;;;;;;19.04;59.92;100609.63;10333647;28;1992;-70
2023/10/04 03:24:09;;;;;;;;;;;;;;;19.04;59.81;100612.28;10333491;28;956;-71
2023/10/04 03:29:06;;;;;;;;;;;;;;;19.03;59.67;100613.22;10332583;28;885;-71
2023/10/04 03:34:04;;;;;;;;;;;;;;;19.02;59.74;100622.06;10332691;28;1317;-71
2023/10/04 03:39:00;;;;;;;;;;;;;;;19.03;59.79;100613.22;10332800;28;1918;-71
2023/10/04 03:43:56;;;;;;;;;;;;;;;19.02;59.72;100614.13;10333508;28;904;-71
2023/10/04 03:48:52;;;;;;;;;;;;;;;19.01;59.75;100614.16;10331384;28;992;-71
2023/10/04 03:53:49;;;;;;;;;;;;;;;18.99;59.73;100618.63;10332171;28;892;-72
2023/10/04 03:58:45;;;;;;;;;;;;;;;18.98;59.75;100620.44;10331300;28;1901;-71
2023/10/04 04:03:41;;;;;;;;;;;;;;;18.98;59.57;100619.56;10331358;28;775;-71
2023/10/04 04:08:37;;;;;;;;;;;;;;;18.98;59.88;100611.63;10331739;28;854;-70
2023/10/04 04:13:36;;;;;;;;;;;;;;;18.98;59.98;100622.22;10330473;28;893;-71
2023/10/04 04:18:32;;;;;;;;;;;;;;;18.96;59.88;100616.97;10330319;28;1902;-71
2023/10/04 04:23:28;;;;;;;;;;;;;;;18.88;59.78;100611.09;10330362;28;838;-70
2023/10/04 04:28:25;;;;;;;;;;;;;;;19.01;59.33;100609.75;10330305;28;863;-71
2023/10/04 04:33:26;;;;;;;;;;;;;;;19.08;59.25;100609.56;10330473;28;1306;-71
2023/10/04 04:38:24;;;;;;;;;;;;;;;19.08;59.12;100618.34;10330684;28;1973;-70
2023/10/04 04:48:16;;;;;;;;;;;;;;;19.13;59.32;100634.91;10329766;28;824;-70
2023/10/04 04:53:14;;;;;;;;;;;;;;;19.14;59.21;100631.31;10330115;28;801;-71
2023/10/04 04:58:13;;;;;;;;;;;;;;;19.19;59.28;100628.53;10329379;28;1963;-71
2023/10/04 05:03:09;;;;;;;;;;;;;;;19.20;59.24;100630.25;10329123;28;868;-71
2023/10/04 05:08:04;;;;;;;;;;;;;;;19.24;59.03;100613.38;10328949;28;838;-71
2023/10/04 05:13:01;;;;;;;;;;;;;;;19.27;59.18;100616.75;10328386;28;927;-72
2023/10/04 05:17:56;;;;;;;;;;;;;;;19.32;58.89;100631.59;10328419;28;1897;-71
2023/10/04 05:22:53;;;;;;;;;;;;;;;19.31;58.67;100621.94;10328354;28;870;-71
2023/10/04 05:27:48;;;;;;;;;;;;;;;19.31;58.86;100622.81;10327570;28;1148;-70
2023/10/04 05:32:44;;;;;;;;;;;;;;;19.33;58.83;100634.19;10327704;28;1391;-71
2023/10/04 05:37:40;;;;;;;;;;;;;;;19.42;58.45;100633.00;10327988;28;1917;-71
2023/10/04 05:42:37;;;;;;;;;;;;;;;19.40;58.59;100648.91;10327473;28;949;-73
2023/10/04 05:47:33;;;;;;;;;;;;;;;19.40;58.41;100643.63;10327365;28;778;-71
2023/10/04 05:52:30;;;;;;;;;;;;;;;19.39;58.56;100641.06;10327729;28;881;-71
2023/10/04 05:57:28;;;;;;;;;;;;;;;19.38;58.19;100644.59;10326069;28;1902;-71
2023/10/04 06:02:24;;;;;;;;;;;;;;;19.36;58.37;100641.13;10326676;28;988;-71
2023/10/04 06:07:20;;;;;;;;;;;;;;;19.38;58.36;100648.09;10327172;28;980;-71
2023/10/04 06:12:15;;;;;;;;;;;;;;;19.40;58.51;100651.56;10326419;28;917;-70
2023/10/04 06:17:11;;;;;;;;;;;;;;;19.42;58.59;100662.94;10322578;28;1890;-69
2023/10/04 06:22:07;;;;;;;;;;;;;;;19.42;58.44;100673.53;10325847;28;846;-71
2023/10/04 06:27:04;;;;;;;;;;;;;;;19.45;58.68;100686.63;10326798;28;842;-71
2023/10/04 06:32:00;;;;;;;;;;;;;;;19.46;58.81;100690.97;10325114;28;1454;-71
2023/10/04 06:36:55;;;;;;;;;;;;;;;19.45;58.71;100697.19;10325132;28;1914;-71
2023/10/04 06:41:52;;;;;;;;;;;;;;;19.46;58.79;100711.28;10325673;28;794;-72
2023/10/04 06:46:48;;;;;;;;;;;;;;;19.48;58.49;100726.19;10325161;28;802;-72
2023/10/04 06:51:45;;;;;;;;;;;;;;;19.46;58.62;100725.34;10324832;28;901;-71
2023/10/04 06:56:41;;;;;;;;;;;;;;;19.46;58.64;100719.22;10325811;28;874;-71
2023/10/04 07:01:37;;;;;;;;;;;;;;;19.44;58.59;100723.69;10325428;28;1910;-73
2023/10/04 07:06:33;;;;;;;;;;;;;;;19.42;58.71;100736.13;10325084;28;886;-71
2023/10/04 07:11:29;;;;;;;;;;;;;;;19.39;58.70;100731.81;10325391;28;966;-76
2023/10/04 07:16:25;;;;;;;;;;;;;;;19.37;58.85;100746.00;10324953;28;821;-71
2023/10/04 07:21:21;;;;;;;;;;;;;;;19.36;58.89;100742.47;10324777;28;1898;-74
2023/10/04 07:26:16;;;;;;;;;;;;;;;19.36;58.77;100755.69;10325087;28;914;-71
2023/10/04 07:31:12;;;;;;;;;;;;;;;19.38;58.83;100767.06;10324097;28;1125;-71
2023/10/04 07:36:10;;;;;;;;;;;;;;;19.39;59.05;100757.38;10324637;28;880;-71
2023/10/04 07:41:06;;;;;;;;;;;;;;;19.40;58.94;100770.53;10325147;28;1910;-71
2023/10/04 07:46:03;;;;;;;;;;;;;;;19.42;58.93;100768.72;10325229;28;857;-71
2023/10/04 07:50:59;;;;;;;;;;;;;;;19.42;58.98;100778.41;10324872;28;778;-71
2023/10/04 07:55:55;;;;;;;;;;;;;;;19.43;58.85;100780.13;10324223;28;896;-71
2023/10/04 08:00:51;;;;;;;;;;;;;;;19.44;58.64;100781.84;10329085;28;1944;-71
2023/10/04 08:05:47;;;;;;;;;;;;;;;19.46;58.83;100777.38;10331337;28;773;-71
2023/10/04 08:10:44;;;;;;;;;;;;;;;19.47;58.91;100780.00;10331569;28;829;-71
2023/10/04 08:15:40;;;;;;;;;;;;;;;19.48;58.63;100786.13;10330849;28;898;-71
2023/10/04 08:20:36;;;;;;;;;;;;;;;19.47;58.73;100793.22;10331324;28;1893;-71
2023/10/04 08:25:32;;;;;;;;;;;;;;;19.47;58.85;100782.63;10330635;28;831;-71
2023/10/04 08:30:30;;;;;;;;;;;;;;;19.49;58.86;100780.81;10329814;28;1231;-71
2023/10/04 08:35:33;;;;;;;;;;;;;;;19.51;58.67;100782.53;10331188;28;853;-71
2023/10/04 08:40:28;;;;;;;;;;;;;;;19.53;58.64;100796.56;10330873;28;1961;-71
2023/10/04 08:45:24;;;;;;;;;;;;;;;19.54;58.65;100793.00;10330203;28;869;-71
2023/10/04 08:50:20;;;;;;;;;;;;;;;19.52;58.46;100794.81;10330596;28;845;-71
2023/10/04 08:55:17;;;;;;;;;;;;;;;19.53;58.69;100781.56;10329549;28;787;-71
2023/10/04 09:00:13;;;;;;;;;;;;;;;19.55;58.55;100792.09;10329816;28;1949;-71
2023/10/04 09:05:10;;;;;;;;;;;;;;;19.56;58.33;100780.59;10329275;28;864;-70
2023/10/04 09:10:06;;;;;;;;;;;;;;;19.56;58.44;100780.59;10329066;28;785;-71
2023/10/04 09:15:02;;;;;;;;;;;;;;;19.55;58.44;100782.38;10328769;28;895;-71
2023/10/04 09:19:59;;;;;;;;;;;;;;;19.53;58.12;100783.34;10329225;28;1898;-71
2023/10/04 09:24:55;;;;;;;;;;;;;;;19.52;58.58;100789.53;10328680;28;914;-71
2023/10/04 09:29:54;;;;;;;;;;;;;;;19.49;58.61;100788.75;10328125;28;780;-71
2023/10/04 09:34:50;;;;;;;;;;;;;;;19.47;58.36;100798.50;10328131;28;1243;-71
2023/10/04 09:39:46;;;;;;;;;;;;;;;19.46;58.35;100793.25;10328203;28;1981;-71
2023/10/04 09:44:42;;;;;;;;;;;;;;;19.46;58.44;100791.47;10328072;28;872;-71
2023/10/04 09:49:40;;;;;;;;;;;;;;;19.43;58.45;100798.66;10327543;28;775;-71
2023/10/04 09:54:36;;;;;;;;;;;;;;;19.43;58.43;100796.84;10327911;28;778;-71
2023/10/04 09:59:33;;;;;;;;;;;;;;;19.43;58.51;100802.16;10328387;28;1906;-71
2023/10/04 10:04:29;;;;;;;;;;;;;;;19.40;58.18;100802.25;10326637;28;886;-71
2023/10/04 10:09:25;;;;;;;;;;;;;;;19.37;58.48;100796.22;10326526;28;939;-71
2023/10/04 10:14:22;;;;;;;;;;;;;;;19.37;58.49;100786.50;10326444;28;946;-71
2023/10/04 10:19:18;;;;;;;;;;;;;;;19.36;58.36;100794.47;10326794;28;1898;-71
2023/10/04 10:24:14;;;;;;;;;;;;;;;19.36;58.41;100797.13;10325934;28;786;-71
2023/10/04 10:29:10;;;;;;;;;;;;;;;19.36;58.45;100787.44;10326519;28;831;-71
2023/10/04 10:34:07;;;;;;;;;;;;;;;19.34;58.28;100786.59;10326246;28;1288;-73
2023/10/04 10:39:03;;;;;;;;;;;;;;;19.36;58.54;100784.78;10326241;28;1910;-68
2023/10/04 10:44:00;;;;;;;;;;;;;;;19.36;58.44;100794.47;10325592;28;906;-72
2023/10/04 10:48:56;;;;;;;;;;;;;;;19.36;58.59;100794.47;10325588;28;952;-72
2023/10/04 10:53:51;;;;;;;;;;;;;;;19.34;58.58;100783.97;10326027;28;960;-71
2023/10/04 10:58:48;;;;;;;;;;;;;;;19.34;58.49;100791.03;10325285;28;1956;-71
2023/10/04 11:03:44;;;;;;;;;;;;;;;19.33;58.73;100786.66;10325874;28;774;-72
2023/10/04 11:08:40;;;;;;;;;;;;;;;19.32;58.86;100790.22;10325099;28;898;-71
2023/10/04 11:13:36;;;;;;;;;;;;;;;19.34;58.64;100783.97;10325116;28;817;-71
2023/10/04 11:18:32;;;;;;;;;;;;;;;19.32;59.06;100792.84;10324914;28;1894;-72
2023/10/04 11:23:28;;;;;;;;;;;;;;;19.35;58.81;100782.19;10325505;28;869;-71
2023/10/04 11:28:24;;;;;;;;;;;;;;;19.34;58.95;100773.38;10325364;28;886;-73
2023/10/04 11:33:20;;;;;;;;;;;;;;;19.33;58.69;100770.78;10326560;28;1133;-72
2023/10/04 11:38:19;;;;;;;;;;;;;;;19.34;59.00;100776.03;10332942;28;1968;-71
2023/10/04 11:43:14;;;;;;;;;;;;;;;19.42;58.58;100773.13;10332856;28;864;-71
2023/10/04 11:48:10;;;;;;;;;;;;;;;19.47;59.07;100761.47;10332064;28;955;-72
2023/10/04 11:53:06;;;;;;;;;;;;;;;19.44;59.00;100760.69;10330906;28;1023;-71
2023/10/04 11:58:04;;;;;;;;;;;;;;;19.39;59.46;100755.59;10329148;28;1873;-71
2023/10/04 12:03:00;;;;;;;;;;;;;;;19.42;58.98;100750.19;10331019;28;770;-72
2023/10/04 12:07:58;;;;;;;;;;;;;;;19.43;58.97;100743.97;10330472;28;842;-72
2023/10/04 12:12:57;;;;;;;;;;;;;;;19.41;59.30;100739.66;10330705;28;840;-72
2023/10/04 12:17:53;;;;;;;;;;;;;;;19.38;59.36;100734.47;10331011;28;1968;-71
2023/10/04 12:22:49;;;;;;;;;;;;;;;19.38;59.34;100729.19;10330264;28;1730;-72
2023/10/04 12:27:47;;;;;;;;;;;;;;;19.40;59.25;100728.22;10330479;28;936;-72
2023/10/04 12:32:43;;;;;;;;;;;;;;;19.47;58.99;100723.59;10329947;28;1384;-71
2023/10/04 12:37:39;;;;;;;;;;;;;;;19.44;58.41;100727.22;10328643;28;1917;-72
2023/10/04 12:42:35;;;;;;;;;;;;;;;19.40;58.93;100728.22;10329717;28;875;-72
2023/10/04 12:47:31;;;;;;;;;;;;;;;19.42;58.41;100730.84;10329898;28;949;-71
2023/10/04 12:52:27;;;;;;;;;;;;;;;19.36;59.07;100726.63;10329454;28;817;-71
2023/10/04 12:57:23;;;;;;;;;;;;;;;19.37;59.03;100728.34;10329198;28;1956;-70
2023/10/04 13:02:22;;;;;;;;;;;;;;;19.38;58.97;100727.41;10329653;28;935;-71
2023/10/04 13:07:19;;;;;;;;;;;;;;;19.46;58.85;100720.06;10329009;28;855;-71
2023/10/04 13:12:15;;;;;;;;;;;;;;;19.48;59.02;100710.31;10329432;28;880;-71
2023/10/04 13:17:11;;;;;;;;;;;;;;;19.53;58.70;100711.94;10328390;28;1898;-71
2023/10/04 13:22:10;;;;;;;;;;;;;;;19.58;58.62;100713.50;10328802;28;890;-70
2023/10/04 13:27:06;;;;;;;;;;;;;;;19.63;58.45;100708.06;10328070;28;786;-71
2023/10/04 13:32:02;;;;;;;;;;;;;;;19.59;58.31;100715.22;10327984;28;1401;-70
2023/10/04 13:36:58;;;;;;;;;;;;;;;19.66;58.07;100707.94;10328172;28;858;-70
2023/10/04 13:41:54;;;;;;;;;;;;;;;19.72;57.67;100707.75;10327957;28;1906;-70
2023/10/04 13:46:50;;;;;;;;;;;;;;;19.72;57.68;100697.16;10326605;28;1016;-70
2023/10/04 13:51:46;;;;;;;;;;;;;;;19.71;57.81;100698.09;10326943;28;918;-70
2023/10/04 13:56:42;;;;;;;;;;;;;;;19.69;57.82;100703.44;10327383;28;810;-71
2023/10/04 14:01:41;;;;;;;;;;;;;;;19.71;58.00;100706.03;10326633;28;1956;-70
2023/10/04 14:06:37;;;;;;;;;;;;;;;19.70;57.75;100697.25;10326703;28;910;-75
2023/10/04 14:11:33;;;;;;;;;;;;;;;19.73;57.83;100693.63;10326598;28;828;-71
2023/10/04 14:16:29;;;;;;;;;;;;;;;19.73;57.79;100690.97;10326650;28;941;-71
2023/10/04 14:21:25;;;;;;;;;;;;;;;19.72;57.87;100683.09;10326189;28;1894;-71
2023/10/04 14:26:21;;;;;;;;;;;;;;;19.73;57.83;100690.97;10327350;28;889;-70
2023/10/04 14:31:21;;;;;;;;;;;;;;;19.72;57.85;100686.59;10326626;28;1342;-71
2023/10/04 14:36:17;;;;;;;;;;;;;;;19.72;57.92;100681.28;10325814;28;914;-71
2023/10/04 14:41:13;;;;;;;;;;;;;;;19.73;58.03;100683.03;10325942;28;1906;-70
2023/10/04 14:46:09;;;;;;;;;;;;;;;19.70;57.91;100683.13;10325628;28;779;-71
2023/10/04 14:51:06;;;;;;;;;;;;;;;19.68;58.22;100677.06;10326303;28;1007;-71
2023/10/04 14:56:02;;;;;;;;;;;;;;;19.69;58.15;100676.13;10325375;28;890;-71
2023/10/04 15:01:05;;;;;;;;;;;;;;;19.69;58.06;100674.34;10324773;28;1894;-70
2023/10/04 15:06:01;;;;;;;;;;;;;;;19.67;58.10;100668.22;10325796;28;813;-71
2023/10/04 15:10:57;;;;;;;;;;;;;;;19.69;58.02;100671.69;10330843;28;774;-71
2023/10/04 15:15:53;;;;;;;;;;;;;;;19.69;58.05;100670.84;10333530;28;921;-71
2023/10/04 15:20:49;;;;;;;;;;;;;;;19.69;57.95;100669.03;10333161;28;1894;-71
2023/10/04 15:25:45;;;;;;;;;;;;;;;19.69;58.00;100641.75;10333627;28;867;-70
2023/10/04 15:30:41;;;;;;;;;;;;;;;19.68;58.04;100634.72;10333353;28;1374;-72
2023/10/04 15:35:37;;;;;;;;;;;;;;;19.69;57.61;100639.09;10332717;28;826;-72
2023/10/04 15:40:34;;;;;;;;;;;;;;;19.68;57.54;100643.53;10331819;28;1961;-66
2023/10/04 15:45:32;;;;;;;;;;;;;;;19.70;57.71;100640.81;10332208;28;984;-71
2023/10/04 15:50:28;;;;;;;;;;;;;;;19.71;57.63;100642.56;10332079;28;818;-71
2023/10/04 15:55:24;;;;;;;;;;;;;;;19.69;57.86;100644.38;10332500;28;877;-71
2023/10/04 16:00:38;;;;;;;;;;;;;;;19.72;57.75;100649.56;10330982;28;1881;-71
2023/10/04 16:05:36;;;;;;;;;;;;;;;19.70;57.73;100646.97;10332085;28;873;-71
2023/10/04 16:10:31;;;;;;;;;;;;;;;19.72;57.69;100644.25;10331260;28;929;-71
2023/10/04 16:15:27;;;;;;;;;;;;;;;19.71;57.91;100645.19;10330519;28;1000;-71
2023/10/04 16:20:23;;;;;;;;;;;;;;;19.71;57.94;100637.25;10329574;28;1886;-71
2023/10/04 16:25:19;;;;;;;;;;;;;;;19.70;57.89;100632.88;10330977;28;874;-71
2023/10/04 16:30:15;;;;;;;;;;;;;;;19.71;57.86;100639.91;10331082;28;1094;-71
2023/10/04 16:35:13;;;;;;;;;;;;;;;19.72;57.89;100641.63;10331160;28;766;-71
2023/10/04 16:40:09;;;;;;;;;;;;;;;19.71;57.82;100642.56;10330129;28;1968;-70
2023/10/04 16:45:05;;;;;;;;;;;;;;;19.69;57.82;100639.09;10330599;28;849;-70
2023/10/04 16:50:01;;;;;;;;;;;;;;;19.68;57.89;100626.81;10330542;28;837;-71
2023/10/04 16:54:57;;;;;;;;;;;;;;;19.69;57.93;100633.81;10329736;28;778;-71
2023/10/04 16:59:54;;;;;;;;;;;;;;;19.68;57.84;100640.88;10329691;28;1905;-71
2023/10/04 17:04:50;;;;;;;;;;;;;;;19.69;57.83;100637.31;10330450;28;849;-71
2023/10/04 17:09:46;;;;;;;;;;;;;;;19.68;57.90;100643.53;10329665;28;916;-71
2023/10/04 17:14:42;;;;;;;;;;;;;;;19.69;57.92;100639.09;10329521;28;770;-72
2023/10/04 17:19:39;;;;;;;;;;;;;;;19.68;57.96;100643.53;10329328;28;1961;-70
2023/10/04 17:24:35;;;;;;;;;;;;;;;19.67;57.98;100646.22;10328383;28;976;-71
2023/10/04 17:29:31;;;;;;;;;;;;;;;19.67;57.82;100636.50;10328256;28;897;-71
2023/10/04 17:34:26;;;;;;;;;;;;;;;19.70;57.79;100632.88;10327703;28;1181;-71
2023/10/04 17:39:22;;;;;;;;;;;;;;;19.71;57.81;100634.63;10327780;28;1967;-71
2023/10/04 17:44:18;;;;;;;;;;;;;;;19.71;57.79;100631.97;10328246;28;884;-71
2023/10/04 17:49:14;;;;;;;;;;;;;;;19.70;57.73;100635.50;10327679;28;837;-71
2023/10/04 17:54:11;;;;;;;;;;;;;;;19.69;57.93;100641.75;10327219;28;981;-71
2023/10/04 17:59:06;;;;;;;;;;;;;;;19.68;57.88;100638.25;10327581;28;1890;-71
2023/10/04 18:04:02;;;;;;;;;;;;;;;19.70;57.71;100641.69;10327506;28;960;-71
2023/10/04 18:08:58;;;;;;;;;;;;;;;19.72;57.63;100644.25;10326104;28;1030;-76
2023/10/04 18:13:54;;;;;;;;;;;;;;;19.68;57.66;100646.16;10326547;28;913;-71
2023/10/04 18:18:50;;;;;;;;;;;;;;;19.67;57.77;100648.84;10327674;28;1890;-71
2023/10/04 18:23:46;;;;;;;;;;;;;;;19.68;57.77;100642.66;10326368;28;763;-70
2023/10/04 18:28:42;;;;;;;;;;;;;;;19.69;57.69;100641.75;10326314;28;787;-71
2023/10/04 18:33:39;;;;;;;;;;;;;;;19.70;57.48;100640.81;10327070;28;1384;-71
2023/10/04 18:38:35;;;;;;;;;;;;;;;19.71;57.69;100658.41;10325928;28;1910;-70
2023/10/04 18:43:31;;;;;;;;;;;;;;;19.71;57.56;100647.84;10325616;28;877;-71
2023/10/04 18:48:27;;;;;;;;;;;;;;;19.72;57.63;100646.06;10326240;28;937;-70
2023/10/04 18:53:23;;;;;;;;;;;;;;;19.72;57.72;100643.41;10325488;28;874;-70
2023/10/04 18:58:20;;;;;;;;;;;;;;;19.71;57.62;100637.25;10326052;28;1886;-75
2023/10/04 19:03:16;;;;;;;;;;;;;;;19.74;57.53;100642.44;10325229;28;992;-71
2023/10/04 19:08:11;;;;;;;;;;;;;;;19.73;57.54;100640.72;10325800;28;770;-72
2023/10/04 19:13:07;;;;;;;;;;;;;;;19.74;57.50;100638.94;10325097;28;1007;-71
2023/10/04 19:18:03;;;;;;;;;;;;;;;19.72;57.76;100638.97;10324946;28;1936;-71
2023/10/04 19:23:00;;;;;;;;;;;;;;;19.71;57.64;100626.69;10324949;28;919;-71
2023/10/04 19:27:58;;;;;;;;;;;;;;;19.70;57.81;100620.53;10324841;28;814;-71
2023/10/04 19:32:54;;;;;;;;;;;;;;;19.71;57.93;100616.09;10324429;28;1133;-71
2023/10/04 19:37:50;;;;;;;;;;;;;;;19.73;57.85;100608.09;10324541;28;1909;-71
2023/10/04 19:42:46;;;;;;;;;;;;;;;19.72;57.95;100609.88;10307778;28;755;-71
2023/10/04 19:47:42;;;;;;;;;;;;;;;19.71;57.81;100589.66;10325013;28;858;-71
2023/10/04 19:52:38;;;;;;;;;;;;;;;19.72;58.01;100598.44;10324286;28;950;-71
2023/10/04 19:57:37;;;;;;;;;;;;;;;19.68;58.01;100595.06;10330300;28;1902;-71
2023/10/04 20:02:33;;;;;;;;;;;;;;;19.66;57.97;100597.75;10331546;28;832;-71
2023/10/04 20:07:29;;;;;;;;;;;;;;;19.65;58.08;100600.44;10331326;28;817;-71
2023/10/04 20:12:25;;;;;;;;;;;;;;;19.63;58.11;100594.34;10331186;28;806;-71
2023/10/04 20:17:20;;;;;;;;;;;;;;;19.60;58.13;100583.88;10331001;28;889;-71
2023/10/04 20:22:16;;;;;;;;;;;;;;;19.58;58.19;100581.28;10331726;28;1959;-70
2023/10/04 20:27:12;;;;;;;;;;;;;;;19.56;57.95;100558.44;10330771;28;795;-71
2023/10/04 20:32:08;;;;;;;;;;;;;;;19.54;57.93;100560.28;10330474;28;1404;-71
2023/10/04 20:37:04;;;;;;;;;;;;;;;19.51;57.77;100555.97;10331678;28;849;-71
2023/10/04 20:42:00;;;;;;;;;;;;;;;19.50;57.83;100554.25;10330631;28;1914;-71
2023/10/04 20:46:56;;;;;;;;;;;;;;;19.48;57.90;100561.38;10330028;28;792;-71
2023/10/04 20:51:52;;;;;;;;;;;;;;;19.44;57.29;100550.06;10329276;28;969;-71
2023/10/04 20:56:48;;;;;;;;;;;;;;;19.45;57.60;100561.50;10330305;28;878;-71
2023/10/04 21:01:45;;;;;;;;;;;;;;;19.43;57.57;100543.03;10330059;28;1964;-70
2023/10/04 21:06:41;;;;;;;;;;;;;;;19.42;57.75;100530.75;10329275;28;876;-71
2023/10/04 21:11:37;;;;;;;;;;;;;;;19.39;57.84;100528.22;10329092;28;838;-71
2023/10/04 21:16:33;;;;;;;;;;;;;;;19.38;57.98;100530.91;10328768;28;861;-71
2023/10/04 21:21:30;;;;;;;;;;;;;;;19.33;57.19;100531.09;10328704;28;1902;-71
2023/10/04 21:26:26;;;;;;;;;;;;;;;19.34;57.34;100516.09;10328464;28;805;-70
2023/10/04 21:31:22;;;;;;;;;;;;;;;19.32;57.65;100508.22;10328520;28;1152;-71
2023/10/04 21:36:18;;;;;;;;;;;;;;;19.32;57.64;100521.44;10328647;28;953;-71
2023/10/04 21:41:15;;;;;;;;;;;;;;;19.29;57.56;100513.63;10328442;28;1910;-71
2023/10/04 21:46:13;;;;;;;;;;;;;;;19.26;57.67;100497.88;10327695;28;843;-71
2023/10/04 21:51:14;;;;;;;;;;;;;;;19.25;57.78;100496.16;10327513;28;770;-71
2023/10/04 21:56:10;;;;;;;;;;;;;;;19.22;57.67;100501.56;10327257;28;1008;-70
2023/10/04 22:01:14;;;;;;;;;;;;;;;19.18;57.80;100507.88;10327592;28;1960;-70
2023/10/04 22:06:10;;;;;;;;;;;;;;;19.17;58.16;100501.72;10327719;28;762;-71
2023/10/04 22:11:08;;;;;;;;;;;;;;;19.16;58.11;100507.94;10326712;28;767;-71
2023/10/04 22:16:04;;;;;;;;;;;;;;;19.15;58.31;100506.22;10326517;28;929;-71
2023/10/04 22:21:00;;;;;;;;;;;;;;;19.14;58.04;100500.97;10326345;28;1898;-71
2023/10/04 22:25:57;;;;;;;;;;;;;;;19.11;58.21;100496.66;10326243;28;915;-70
2023/10/04 22:36:07;;;;;;;;;;;;;;;19.12;58.29;100492.25;10131463;22;2317;-70
2023/10/04 22:41:04;;;;;;;;;;;;;;;19.09;58.15;100498.50;10325772;28;1922;-70
2023/10/04 22:46:00;;;;;;;;;;;;;;;19.07;58.49;100500.31;10326661;28;831;-70
2023/10/04 22:50:56;;;;;;;;;;;;;;;19.07;58.51;100494.19;10325666;28;769;-70
2023/10/04 22:55:54;;;;;;;;;;;;;;;19.07;58.65;100491.53;10326503;28;869;-70
2023/10/04 23:00:51;;;;;;;;;;;;;;;19.03;58.42;100469.66;10325778;28;1901;-71
2023/10/04 23:05:53;;;;;;;;;;;;;;;19.02;58.46;100463.53;10325534;28;852;-70
2023/10/04 23:10:49;;;;;;;;;;;;;;;19.00;58.37;100462.72;10326292;28;896;-70
2023/10/04 23:15:46;;;;;;;;;;;;;;;19.00;58.49;100454.78;10325187;28;905;-70
2023/10/04 23:20:47;;;;;;;;;;;;;;;18.99;58.56;100442.50;10325587;28;1902;-70
2023/10/04 23:25:44;;;;;;;;;;;;;;;18.97;58.41;100444.34;10324586;28;901;-70
2023/10/04 23:30:42;;;;;;;;;;;;;;;18.98;58.50;100450.47;10328500;28;865;-70
2023/10/04 23:35:41;;;;;;;;;;;;;;;18.96;58.55;100453.16;10332777;28;1104;-70
2023/10/04 23:40:45;;;;;;;;;;;;;;;18.97;58.58;100441.69;10333119;28;1968;-70
2023/10/04 23:50:47;;;;;;;;;;;;;;;18.94;58.64;100433.91;10339219;22;1688;-70
2023/10/04 23:55:43;;;;;;;;;;;;;;;18.94;58.57;100439.19;10250548;28;926;-70
